Time;durP1;ratioP1;P1;durP2;ratioP2;P2;SDS_P1;SDS_P2;PMS_P1;PMS_P2;Temp;Humidity;BMP_temperature;BMP_pressure;BME280_temperature;BME280_humidity;BME280_pressure;Samples;Min_cycle;Max_cycle;Signal;HPM_P1;HPM_P2
2021/04/06 00:01:53;;;;;;;;;;;2.60;96.60;;;;;;5045807;28;19905;-83
2021/04/06 00:04:23;;;;;;;;;;;2.60;97.10;;;;;;5044712;28;19932;-83
2021/04/06 00:06:53;;;;;;;;;;;2.40;97.50;;;;;;5045428;28;20305;-83
2021/04/06 00:09:23;;;;;;;;;;;2.30;97.80;;;;;;5047455;28;20286;-84
2021/04/06 00:11:50;;;;;;;;;;;2.30;97.90;;;;;;5048548;28;19905;-83
2021/04/06 00:14:17;;;;;;;;;;;2.30;97.80;;;;;;5048082;28;19936;-84
2021/04/06 00:16:43;;;;;;;;;;;2.50;97.40;;;;;;5050047;28;19905;-83
2021/04/06 00:19:12;;;;;;;;;;;2.50;97.20;;;;;;5048097;28;19937;-83
2021/04/06 00:21:38;;;;;;;;;;;2.60;97.10;;;;;;5048947;28;19936;-84
2021/04/06 00:24:04;;;;;;;;;;;2.60;97.30;;;;;;5048804;28;19905;-83
2021/04/06 00:26:44;;;;;;;;;;;2.70;97.00;;;;;;5050117;28;19909;-83
2021/04/06 00:29:10;;;;;;;;;;;2.70;96.70;;;;;;5048895;28;20362;-84
2021/04/06 00:31:36;;;;;;;;;;;2.80;96.70;;;;;;5048284;28;19948;-84
2021/04/06 00:34:01;;;;;;;;;;;2.80;96.40;;;;;;5049844;28;19912;-84
2021/04/06 00:36:27;;;;;;;;;;;2.80;96.50;;;;;;5033393;28;19905;-83
2021/04/06 00:38:53;;;;;;;;;;;2.90;96.50;;;;;;5032434;28;19912;-84
2021/04/06 00:41:19;;;;;;;;;;;2.80;96.40;;;;;;5049060;28;19905;-83
2021/04/06 00:43:45;;;;;;;;;;;2.80;96.50;;;;;;5050130;28;19915;-83
2021/04/06 00:46:31;;;;;;;;;;;2.80;96.20;;;;;;5050125;28;19913;-84
2021/04/06 00:48:57;;;;;;;;;;;2.80;96.00;;;;;;5032395;28;19906;-84
2021/04/06 00:51:22;;;;;;;;;;;2.90;95.90;;;;;;5050177;28;19964;-84
2021/04/06 00:54:02;;;;;;;;;;;2.90;96.00;;;;;;5050447;28;19935;-84
2021/04/06 00:56:32;;;;;;;;;;;2.80;96.20;;;;;;5048624;28;19909;-84
2021/04/06 00:58:59;;;;;;;;;;;2.80;96.20;;;;;;5044651;28;19992;-84
2021/04/06 01:01:39;;;;;;;;;;;2.80;96.20;;;;;;5046799;28;19916;-84
2021/04/06 01:04:06;;;;;;;;;;;2.70;96.50;;;;;;5044042;28;19912;-83
2021/04/06 01:06:32;;;;;;;;;;;2.70;96.30;;;;;;5048629;28;19909;-83
2021/04/06 01:08:58;;;;;;;;;;;2.80;96.50;;;;;;5044203;28;19909;-83
2021/04/06 01:11:23;;;;;;;;;;;2.80;96.40;;;;;;5046774;28;19912;-83
2021/04/06 01:13:49;;;;;;;;;;;2.70;96.40;;;;;;5029389;28;20272;-83
2021/04/06 01:16:15;;;;;;;;;;;2.70;96.10;;;;;;5045564;28;19916;-83
2021/04/06 01:18:41;;;;;;;;;;;2.70;96.30;;;;;;5046213;28;20313;-83
2021/04/06 01:21:07;;;;;;;;;;;2.70;96.80;;;;;;5046789;28;19905;-84
2021/04/06 01:23:34;;;;;;;;;;;2.80;96.90;;;;;;5045586;28;19911;-83
2021/04/06 01:26:00;;;;;;;;;;;2.70;96.80;;;;;;5047993;28;19909;-83
2021/04/06 01:28:29;;;;;;;;;;;2.70;97.00;;;;;;5030086;28;20358;-84
2021/04/06 01:30:55;;;;;;;;;;;2.70;97.20;;;;;;5046747;28;19916;-84
2021/04/06 01:33:22;;;;;;;;;;;2.70;97.20;;;;;;5047615;28;19905;-84
2021/04/06 01:35:49;;;;;;;;;;;2.50;96.80;;;;;;5046740;28;19905;-83
2021/04/06 01:38:15;;;;;;;;;;;2.50;96.80;;;;;;5065710;22;19925;-85
2021/04/06 01:40:44;;;;;;;;;;;2.40;97.00;;;;;;5037811;28;19908;-85
2021/04/06 01:43:12;;;;;;;;;;;2.40;97.10;;;;;;5037521;28;19934;-85
2021/04/06 01:45:45;;;;;;;;;;;2.40;97.10;;;;;;5037561;28;20285;-85
2021/04/06 01:48:14;;;;;;;;;;;2.40;97.00;;;;;;5051414;28;19904;-85
2021/04/06 01:50:41;;;;;;;;;;;2.30;96.90;;;;;;5075475;28;19904;-86
2021/04/06 01:53:06;;;;;;;;;;;2.40;97.20;;;;;;5057730;28;19904;-85
2021/04/06 01:55:34;;;;;;;;;;;2.50;97.00;;;;;;5075218;28;19912;-85
2021/04/06 01:58:00;;;;;;;;;;;2.40;97.00;;;;;;5075152;28;19904;-85
2021/04/06 02:02:51;;;;;;;;;;;2.40;96.90;;;;;;5075080;28;20394;-86
2021/04/06 02:05:18;;;;;;;;;;;2.30;97.20;;;;;;5056750;28;19908;-86
2021/04/06 02:07:45;;;;;;;;;;;2.40;97.20;;;;;;5056330;28;19954;-85
2021/04/06 02:10:12;;;;;;;;;;;2.40;97.10;;;;;;5056876;28;19910;-85
2021/04/06 02:12:38;;;;;;;;;;;2.30;97.10;;;;;;5073920;28;19915;-87
2021/04/06 02:15:07;;;;;;;;;;;2.30;97.20;;;;;;5074945;28;20380;-86
2021/04/06 02:17:44;;;;;;;;;;;2.30;97.40;;;;;;5075144;28;19904;-85
2021/04/06 02:20:17;;;;;;;;;;;2.20;98.00;;;;;;5057058;28;19999;-86
2021/04/06 02:22:51;;;;;;;;;;;2.00;98.70;;;;;;5057195;28;20011;-86
2021/04/06 02:25:17;;;;;;;;;;;1.90;98.70;;;;;;5057387;28;19983;-86
2021/04/06 02:27:43;;;;;;;;;;;1.90;99.00;;;;;;5075924;28;20037;-85
2021/04/06 02:30:09;;;;;;;;;;;1.80;99.30;;;;;;5056712;28;19904;-85
2021/04/06 02:32:35;;;;;;;;;;;1.80;99.10;;;;;;5075124;28;19905;-85
2021/04/06 02:35:03;;;;;;;;;;;1.80;99.60;;;;;;5057004;28;20365;-85
2021/04/06 02:37:30;;;;;;;;;;;1.70;99.10;;;;;;5056808;28;19919;-86
2021/04/06 02:39:57;;;;;;;;;;;1.70;99.10;;;;;;5055809;28;19908;-84
2021/04/06 02:42:26;;;;;;;;;;;1.70;98.90;;;;;;5055494;28;19904;-85
2021/04/06 02:44:56;;;;;;;;;;;1.70;98.70;;;;;;5055449;28;19908;-85
2021/04/06 02:47:22;;;;;;;;;;;1.80;98.60;;;;;;5055335;28;20280;-85
2021/04/06 02:49:48;;;;;;;;;;;1.80;98.70;;;;;;5055629;28;20025;-85
2021/04/06 02:52:15;;;;;;;;;;;1.80;98.80;;;;;;5055521;28;19955;-85
2021/04/06 02:54:40;;;;;;;;;;;1.80;98.80;;;;;;5055596;28;19908;-85
2021/04/06 02:57:19;;;;;;;;;;;1.90;98.90;;;;;;5055509;28;19954;-85
2021/04/06 02:59:46;;;;;;;;;;;1.80;98.90;;;;;;5055386;28;20375;-85
2021/04/06 03:02:11;;;;;;;;;;;1.70;98.90;;;;;;5055277;28;19904;-86
2021/04/06 03:04:39;;;;;;;;;;;1.80;99.30;;;;;;5055190;28;19915;-86
2021/04/06 03:07:14;;;;;;;;;;;1.90;99.10;;;;;;5055130;28;19904;-86
2021/04/06 03:09:40;;;;;;;;;;;2.00;99.00;;;;;;5055233;28;19904;-86
2021/04/06 03:12:06;;;;;;;;;;;2.10;98.90;;;;;;5055248;28;20304;-87
2021/04/06 03:14:32;;;;;;;;;;;2.20;98.50;;;;;;5073000;28;19905;-87
2021/04/06 03:16:57;;;;;;;;;;;2.20;98.50;;;;;;5055361;28;19911;-85
2021/04/06 03:19:29;;;;;;;;;;;2.30;98.90;;;;;;5055056;28;19904;-86
2021/04/06 03:21:56;;;;;;;;;;;2.40;98.10;;;;;;5055335;28;19904;-85
2021/04/06 03:24:22;;;;;;;;;;;2.40;98.20;;;;;;5054996;28;19904;-86
2021/04/06 03:26:47;;;;;;;;;;;2.40;98.10;;;;;;5055114;28;20262;-85
2021/04/06 03:29:13;;;;;;;;;;;2.40;97.90;;;;;;5055090;28;19995;-86
2021/04/06 03:31:38;;;;;;;;;;;2.40;97.70;;;;;;5055081;28;19905;-85
2021/04/06 03:34:04;;;;;;;;;;;2.40;97.70;;;;;;5054965;28;19911;-86
2021/04/06 03:36:30;;;;;;;;;;;2.40;97.40;;;;;;5054940;28;19943;-86
2021/04/06 03:38:57;;;;;;;;;;;2.30;97.50;;;;;;5054828;28;19999;-85
2021/04/06 03:41:30;;;;;;;;;;;2.30;97.60;;;;;;5055029;28;19904;-86
2021/04/06 03:44:03;;;;;;;;;;;2.30;97.50;;;;;;5057531;28;19912;-86
2021/04/06 03:46:28;;;;;;;;;;;2.30;97.30;;;;;;5058539;28;19930;-86
2021/04/06 03:49:10;;;;;;;;;;;2.40;97.50;;;;;;5075211;28;20421;-86
2021/04/06 03:51:36;;;;;;;;;;;2.50;97.20;;;;;;5076615;28;20322;-86
2021/04/06 03:54:02;;;;;;;;;;;2.40;97.20;;;;;;5058541;28;20015;-87
2021/04/06 03:56:31;;;;;;;;;;;2.40;97.10;;;;;;5058572;28;20012;-86
2021/04/06 03:58:58;;;;;;;;;;;2.40;97.00;;;;;;5076353;28;19955;-85
2021/04/06 04:01:24;;;;;;;;;;;2.40;97.20;;;;;;5058306;28;19912;-86
2021/04/06 04:03:54;;;;;;;;;;;2.20;97.20;;;;;;5076154;28;19994;-86
2021/04/06 04:06:26;;;;;;;;;;;2.30;97.60;;;;;;5076274;28;19909;-86
2021/04/06 04:08:52;;;;;;;;;;;2.30;97.20;;;;;;5058135;28;19912;-85
2021/04/06 04:11:18;;;;;;;;;;;2.30;97.30;;;;;;5076049;28;20356;-85
2021/04/06 04:13:43;;;;;;;;;;;2.30;97.40;;;;;;5058178;28;19927;-85
2021/04/06 04:16:09;;;;;;;;;;;2.30;97.30;;;;;;5058060;28;19904;-85
2021/04/06 04:18:35;;;;;;;;;;;2.30;97.60;;;;;;5057889;28;20404;-87
2021/04/06 04:21:04;;;;;;;;;;;2.30;97.70;;;;;;5057735;28;19911;-86
2021/04/06 04:23:30;;;;;;;;;;;2.20;97.50;;;;;;5075671;28;19905;-85
2021/04/06 04:25:55;;;;;;;;;;;2.20;97.50;;;;;;5057725;28;19908;-86
2021/04/06 04:28:21;;;;;;;;;;;2.20;97.80;;;;;;5075840;28;19927;-87
2021/04/06 04:30:48;;;;;;;;;;;2.20;97.70;;;;;;5058006;28;20033;-86
2021/04/06 04:33:14;;;;;;;;;;;2.20;97.50;;;;;;5058088;28;19910;-85
2021/04/06 04:35:40;;;;;;;;;;;2.20;97.30;;;;;;5075781;28;20003;-86
2021/04/06 04:38:06;;;;;;;;;;;2.20;97.50;;;;;;5057550;28;19919;-85
2021/04/06 04:40:32;;;;;;;;;;;2.30;97.20;;;;;;5057793;28;19909;-85
2021/04/06 04:42:57;;;;;;;;;;;2.40;97.20;;;;;;5075599;28;20282;-89
2021/04/06 04:45:24;;;;;;;;;;;2.40;96.80;;;;;;5057543;28;20361;-85
2021/04/06 04:47:50;;;;;;;;;;;2.40;96.90;;;;;;5057968;28;19920;-86
2021/04/06 04:50:16;;;;;;;;;;;2.30;97.00;;;;;;5057776;28;19953;-88
2021/04/06 04:52:46;;;;;;;;;;;2.40;96.70;;;;;;5057430;28;19905;-86
2021/04/06 04:55:13;;;;;;;;;;;2.30;96.50;;;;;;5057087;28;19904;-86
2021/04/06 04:57:38;;;;;;;;;;;2.40;96.70;;;;;;5057440;28;19912;-86
2021/04/06 05:00:09;;;;;;;;;;;2.30;96.40;;;;;;5057803;28;19925;-86
2021/04/06 05:02:34;;;;;;;;;;;2.30;96.50;;;;;;5057169;28;19911;-85
2021/04/06 05:05:00;;;;;;;;;;;2.30;96.60;;;;;;5075312;28;20296;-86
2021/04/06 05:07:26;;;;;;;;;;;2.30;96.60;;;;;;5056923;28;19904;-86
2021/04/06 05:09:52;;;;;;;;;;;2.10;96.00;;;;;;5057159;28;19904;-87
2021/04/06 05:12:17;;;;;;;;;;;2.10;96.40;;;;;;5075143;28;20423;-85
2021/04/06 05:14:45;;;;;;;;;;;2.10;96.40;;;;;;5057120;28;19910;-85
2021/04/06 05:17:11;;;;;;;;;;;2.10;96.60;;;;;;5057230;28;19938;-86
2021/04/06 05:19:36;;;;;;;;;;;2.20;96.70;;;;;;5057104;28;20334;-87
2021/04/06 05:22:02;;;;;;;;;;;2.10;96.60;;;;;;5057238;28;20310;-85
2021/04/06 05:24:27;;;;;;;;;;;2.10;96.80;;;;;;5074932;28;19915;-86
2021/04/06 05:26:53;;;;;;;;;;;2.00;96.80;;;;;;5057044;28;19912;-85
2021/04/06 05:29:19;;;;;;;;;;;2.10;97.20;;;;;;5057002;28;19912;-86
2021/04/06 05:31:44;;;;;;;;;;;2.10;97.00;;;;;;5057622;28;20384;-86
2021/04/06 05:34:10;;;;;;;;;;;2.20;97.00;;;;;;5074983;28;19908;-85
2021/04/06 05:36:35;;;;;;;;;;;2.10;97.00;;;;;;5056818;28;19995;-85
2021/04/06 05:39:01;;;;;;;;;;;2.20;96.80;;;;;;5056896;28;19916;-85
2021/04/06 05:41:27;;;;;;;;;;;2.20;97.10;;;;;;5056975;28;19905;-85
2021/04/06 05:44:01;;;;;;;;;;;2.30;96.60;;;;;;5057094;28;20351;-85
2021/04/06 05:46:28;;;;;;;;;;;2.30;96.50;;;;;;5057053;28;20428;-85
2021/04/06 05:48:55;;;;;;;;;;;2.20;96.20;;;;;;5056581;28;20315;-85
2021/04/06 05:51:22;;;;;;;;;;;2.20;95.80;;;;;;5056405;28;20027;-85
2021/04/06 05:53:48;;;;;;;;;;;2.20;96.00;;;;;;5074471;28;19908;-85
2021/04/06 05:56:13;;;;;;;;;;;2.10;95.50;;;;;;5056396;28;19905;-85
2021/04/06 05:58:39;;;;;;;;;;;2.20;96.00;;;;;;5056313;28;20290;-86
2021/04/06 06:01:05;;;;;;;;;;;2.10;96.00;;;;;;5056254;28;19973;-85
2021/04/06 06:03:30;;;;;;;;;;;2.20;96.00;;;;;;5056264;28;19904;-85
2021/04/06 06:05:56;;;;;;;;;;;2.30;95.60;;;;;;5055360;28;20333;-85
2021/04/06 06:08:22;;;;;;;;;;;2.20;95.60;;;;;;5056138;28;19905;-86
2021/04/06 06:10:59;;;;;;;;;;;2.10;95.70;;;;;;5074408;28;19915;-86
2021/04/06 06:13:24;;;;;;;;;;;2.10;96.10;;;;;;5074086;28;19908;-86
2021/04/06 06:16:07;;;;;;;;;;;2.10;95.90;;;;;;5056033;28;20349;-85
2021/04/06 06:18:33;;;;;;;;;;;2.10;96.40;;;;;;5055927;28;19957;-85
2021/04/06 06:21:00;;;;;;;;;;;2.20;96.20;;;;;;5056143;28;19904;-85
2021/04/06 06:23:25;;;;;;;;;;;2.10;96.60;;;;;;5075145;28;19968;-85
2021/04/06 06:26:06;;;;;;;;;;;2.10;97.10;;;;;;5056844;28;19970;-85
2021/04/06 06:43:57;;;;;;;;;;;2.10;97.60;;;;;;5074042;28;19916;-85
2021/04/06 06:46:35;;;;;;;;;;;2.20;98.00;;;;;;5056315;28;19912;-85
2021/04/06 06:49:04;;;;;;;;;;;2.20;97.60;;;;;;5056319;28;19911;-85
2021/04/06 06:51:34;;;;;;;;;;;2.10;97.00;;;;;;5055629;28;20387;-85
2021/04/06 06:54:00;;;;;;;;;;;2.20;97.20;;;;;;5055956;28;20323;-86
2021/04/06 06:56:35;;;;;;;;;;;2.20;96.50;;;;;;5055505;28;19904;-85
2021/04/06 06:59:00;;;;;;;;;;;2.30;96.60;;;;;;5055601;28;19970;-85
2021/04/06 07:01:27;;;;;;;;;;;2.40;95.90;;;;;;5055567;28;20353;-85
2021/04/06 07:04:06;;;;;;;;;;;2.40;95.80;;;;;;5055528;28;19995;-86
2021/04/06 07:06:32;;;;;;;;;;;2.30;96.30;;;;;;5055427;28;19909;-85
2021/04/06 07:08:58;;;;;;;;;;;2.40;96.20;;;;;;5073300;28;19908;-86
2021/04/06 07:11:24;;;;;;;;;;;2.40;96.20;;;;;;5073742;28;19911;-86
2021/04/06 07:13:51;;;;;;;;;;;2.40;96.20;;;;;;5055653;28;19904;-85
2021/04/06 07:16:17;;;;;;;;;;;2.40;96.30;;;;;;5055367;28;20003;-85
2021/04/06 07:18:43;;;;;;;;;;;2.40;96.20;;;;;;5077538;28;19912;-85
2021/04/06 07:21:10;;;;;;;;;;;2.40;96.20;;;;;;5059374;28;19908;-85
2021/04/06 07:23:45;;;;;;;;;;;2.40;96.50;;;;;;5077417;28;19905;-86
2021/04/06 07:26:12;;;;;;;;;;;2.40;96.10;;;;;;5077155;28;19909;-85
2021/04/06 07:28:38;;;;;;;;;;;2.50;96.50;;;;;;5077011;28;20387;-86
2021/04/06 07:31:04;;;;;;;;;;;2.60;96.20;;;;;;5059101;28;19904;-86
2021/04/06 07:33:30;;;;;;;;;;;2.60;95.80;;;;;;5076891;28;19904;-86
2021/04/06 07:35:58;;;;;;;;;;;2.60;95.50;;;;;;5059084;28;20356;-85
2021/04/06 07:38:23;;;;;;;;;;;2.70;95.80;;;;;;5059593;28;20574;-86
2021/04/06 07:40:52;;;;;;;;;;;2.60;95.10;;;;;;5059106;28;19947;-85
2021/04/06 07:43:17;;;;;;;;;;;2.70;95.30;;;;;;5058608;28;19904;-86
2021/04/06 07:45:43;;;;;;;;;;;2.80;95.40;;;;;;5058567;28;20365;-86
2021/04/06 07:48:09;;;;;;;;;;;2.80;94.80;;;;;;5058899;28;20390;-85
2021/04/06 07:50:40;;;;;;;;;;;2.80;94.30;;;;;;5058638;28;19904;-85
2021/04/06 07:53:22;;;;;;;;;;;2.70;94.20;;;;;;5058687;28;20383;-85
2021/04/06 07:55:49;;;;;;;;;;;2.80;94.60;;;;;;5059119;28;19915;-86
2021/04/06 07:58:33;;;;;;;;;;;2.80;93.70;;;;;;5059018;28;19982;-85
2021/04/06 08:01:05;;;;;;;;;;;2.90;94.60;;;;;;5076892;28;19950;-85
2021/04/06 08:03:49;;;;;;;;;;;2.90;93.90;;;;;;5076630;28;20460;-86
2021/04/06 08:06:41;;;;;;;;;;;2.90;93.70;;;;;;5058411;28;19908;-86
2021/04/06 08:09:25;;;;;;;;;;;2.90;92.90;;;;;;5054613;28;19912;-85
2021/04/06 08:12:07;;;;;;;;;;;3.00;93.60;;;;;;5076420;28;20342;-86
2021/04/06 08:14:53;;;;;;;;;;;3.10;93.90;;;;;;5076374;28;19905;-85
2021/04/06 08:17:27;;;;;;;;;;;3.20;93.50;;;;;;5058438;28;19908;-85
2021/04/06 08:19:55;;;;;;;;;;;3.20;93.20;;;;;;5058324;28;19904;-85
2021/04/06 08:22:25;;;;;;;;;;;3.20;93.40;;;;;;5076322;28;20508;-85
2021/04/06 08:24:51;;;;;;;;;;;3.30;93.00;;;;;;5057720;28;19908;-86
2021/04/06 08:27:35;;;;;;;;;;;3.30;92.60;;;;;;5057472;28;19911;-86
2021/04/06 08:30:24;;;;;;;;;;;3.30;91.80;;;;;;5056416;28;19954;-87
2021/04/06 08:32:55;;;;;;;;;;;3.30;92.30;;;;;;5075526;28;19905;-87
2021/04/06 08:35:41;;;;;;;;;;;3.30;92.40;;;;;;5057336;28;19930;-87
2021/04/06 08:40:50;;;;;;;;;;;3.40;92.40;;;;;;5075083;28;19950;-87
2021/04/06 08:43:17;;;;;;;;;;;3.50;92.90;;;;;;5057148;28;19908;-87
2021/04/06 08:45:55;;;;;;;;;;;3.60;93.00;;;;;;5057151;28;19919;-87
2021/04/06 08:48:39;;;;;;;;;;;3.70;92.50;;;;;;5075148;28;19905;-87
2021/04/06 08:51:24;;;;;;;;;;;3.70;91.90;;;;;;5056445;28;19954;-87
2021/04/06 08:54:00;;;;;;;;;;;3.70;91.50;;;;;;5057000;28;20311;-87
2021/04/06 08:56:27;;;;;;;;;;;3.70;90.60;;;;;;5057003;28;19911;-86
2021/04/06 08:59:09;;;;;;;;;;;3.50;90.70;;;;;;5056409;28;20308;-86
2021/04/06 09:01:35;;;;;;;;;;;3.50;91.20;;;;;;5056909;28;19904;-87
2021/04/06 09:04:08;;;;;;;;;;;3.60;91.00;;;;;;5056851;28;19954;-87
2021/04/06 09:06:33;;;;;;;;;;;3.60;90.80;;;;;;5056757;28;19930;-87
2021/04/06 09:08:58;;;;;;;;;;;3.60;89.80;;;;;;5056166;28;20356;-87
2021/04/06 09:11:25;;;;;;;;;;;3.60;88.50;;;;;;5056618;28;20002;-87
2021/04/06 09:13:52;;;;;;;;;;;3.70;89.80;;;;;;5056633;28;19947;-87
2021/04/06 09:16:24;;;;;;;;;;;3.80;90.10;;;;;;5056466;28;19908;-87
2021/04/06 09:19:00;;;;;;;;;;;3.80;86.20;;;;;;5074146;28;20122;-87
2021/04/06 09:21:26;;;;;;;;;;;3.90;85.70;;;;;;5074339;28;19911;-87
2021/04/06 09:23:53;;;;;;;;;;;4.00;87.50;;;;;;5056394;28;20415;-87
2021/04/06 09:26:18;;;;;;;;;;;3.90;85.50;;;;;;5056365;28;20456;-86
2021/04/06 09:28:44;;;;;;;;;;;3.80;82.90;;;;;;5074179;28;19939;-87
2021/04/06 09:31:09;;;;;;;;;;;3.80;83.70;;;;;;5055571;28;20390;-87
2021/04/06 09:33:36;;;;;;;;;;;3.90;84.80;;;;;;5056296;28;20383;-87
2021/04/06 09:36:01;;;;;;;;;;;3.90;86.70;;;;;;5056329;28;19905;-87
2021/04/06 09:38:27;;;;;;;;;;;3.80;85.60;;;;;;5056113;28;19908;-86
2021/04/06 09:40:53;;;;;;;;;;;3.90;87.70;;;;;;5073454;28;19911;-86
2021/04/06 09:43:18;;;;;;;;;;;4.00;86.40;;;;;;5056221;28;19912;-86
2021/04/06 09:45:46;;;;;;;;;;;4.10;84.60;;;;;;5055782;28;19912;-87
2021/04/06 09:48:15;;;;;;;;;;;4.20;84.70;;;;;;5055814;28;20292;-87
2021/04/06 09:50:54;;;;;;;;;;;4.20;85.00;;;;;;5055383;28;19908;-86
2021/04/06 09:53:20;;;;;;;;;;;4.30;87.30;;;;;;5073804;28;19910;-87
2021/04/06 09:55:47;;;;;;;;;;;4.20;83.50;;;;;;5074008;28;19991;-87
2021/04/06 09:58:13;;;;;;;;;;;4.00;83.50;;;;;;5055800;28;19911;-86
2021/04/06 10:00:38;;;;;;;;;;;4.10;86.20;;;;;;5073174;28;19904;-87
2021/04/06 10:03:04;;;;;;;;;;;4.10;83.80;;;;;;5055399;28;19927;-87
2021/04/06 10:05:30;;;;;;;;;;;4.20;84.00;;;;;;5055727;28;19916;-87
2021/04/06 10:07:55;;;;;;;;;;;4.20;85.60;;;;;;5055662;28;20315;-86
2021/04/06 10:10:26;;;;;;;;;;;4.30;88.40;;;;;;5055343;28;19953;-87
2021/04/06 10:12:52;;;;;;;;;;;4.20;90.30;;;;;;5055978;28;19904;-87
2021/04/06 10:15:21;;;;;;;;;;;4.20;91.00;;;;;;5073460;28;19989;-87
2021/04/06 10:18:10;;;;;;;;;;;4.20;90.50;;;;;;5055488;28;20385;-87
2021/04/06 10:20:50;;;;;;;;;;;4.20;90.40;;;;;;5055389;28;19954;-86
2021/04/06 10:23:29;;;;;;;;;;;4.10;88.70;;;;;;5073902;28;19905;-86
2021/04/06 10:25:55;;;;;;;;;;;4.10;88.90;;;;;;5073384;28;20284;-87
2021/04/06 10:28:22;;;;;;;;;;;4.10;90.10;;;;;;5073560;28;19905;-87
2021/04/06 10:30:58;;;;;;;;;;;4.20;90.00;;;;;;5072803;28;19912;-87
2021/04/06 10:33:30;;;;;;;;;;;4.20;90.00;;;;;;5073125;28;20288;-87
2021/04/06 10:35:57;;;;;;;;;;;4.40;87.70;;;;;;5056134;28;19905;-86
2021/04/06 10:38:22;;;;;;;;;;;4.30;85.20;;;;;;5055904;28;20308;-87
2021/04/06 10:40:48;;;;;;;;;;;4.40;84.80;;;;;;5054883;28;19905;-88
2021/04/06 10:43:18;;;;;;;;;;;4.50;83.50;;;;;;5073596;28;19961;-88
2021/04/06 10:45:46;;;;;;;;;;;4.60;84.10;;;;;;5054259;28;19913;-86
2021/04/06 10:48:18;;;;;;;;;;;4.60;83.80;;;;;;5055311;28;19950;-87
2021/04/06 10:50:54;;;;;;;;;;;4.60;85.50;;;;;;5054360;28;19908;-87
2021/04/06 10:53:26;;;;;;;;;;;4.70;85.90;;;;;;5054821;28;19912;-87
2021/04/06 10:55:56;;;;;;;;;;;4.80;84.00;;;;;;5055178;28;19904;-87
2021/04/06 10:58:32;;;;;;;;;;;4.80;84.90;;;;;;5054724;28;19904;-87
2021/04/06 11:01:08;;;;;;;;;;;5.00;84.20;;;;;;5054650;28;19908;-87
2021/04/06 11:03:37;;;;;;;;;;;4.90;80.90;;;;;;5054877;28;20352;-87
2021/04/06 11:06:22;;;;;;;;;;;5.00;80.70;;;;;;5055270;28;19915;-87
2021/04/06 11:08:49;;;;;;;;;;;5.00;79.70;;;;;;5052778;28;19914;-87
2021/04/06 11:11:35;;;;;;;;;;;4.90;78.50;;;;;;5054940;28;19911;-88
2021/04/06 11:14:21;;;;;;;;;;;5.00;78.30;;;;;;5054067;28;19904;-87
2021/04/06 11:16:53;;;;;;;;;;;5.00;75.90;;;;;;5054188;28;19904;-87
2021/04/06 11:19:32;;;;;;;;;;;5.00;74.00;;;;;;5054579;28;20387;-87
2021/04/06 11:22:01;;;;;;;;;;;5.00;73.80;;;;;;5072634;28;19995;-87
2021/04/06 11:24:29;;;;;;;;;;;5.00;74.70;;;;;;5055019;28;19904;-87
2021/04/06 11:26:58;;;;;;;;;;;5.00;75.40;;;;;;5054814;28;19998;-87
2021/04/06 11:29:30;;;;;;;;;;;5.10;77.70;;;;;;5072050;28;19905;-87
2021/04/06 11:31:59;;;;;;;;;;;5.10;78.70;;;;;;5072587;28;19905;-87
2021/04/06 11:34:26;;;;;;;;;;;5.00;78.90;;;;;;5054972;28;19905;-87
2021/04/06 11:37:03;;;;;;;;;;;5.10;80.30;;;;;;5054392;28;19915;-87
2021/04/06 11:39:30;;;;;;;;;;;5.00;80.30;;;;;;5054301;28;20284;-87
2021/04/06 11:42:02;;;;;;;;;;;5.00;80.40;;;;;;5054992;28;19905;-87
2021/04/06 11:44:34;;;;;;;;;;;4.80;80.70;;;;;;5072551;28;19916;-86
2021/04/06 11:47:05;;;;;;;;;;;4.60;81.00;;;;;;5054470;28;19915;-87
2021/04/06 11:49:34;;;;;;;;;;;4.50;82.30;;;;;;5054089;28;19950;-87
2021/04/06 11:52:02;;;;;;;;;;;4.30;85.80;;;;;;5072689;28;19912;-89
2021/04/06 11:54:30;;;;;;;;;;;3.80;90.50;;;;;;5055105;28;19909;-87
2021/04/06 11:56:56;;;;;;;;;;;3.70;92.20;;;;;;5054407;28;19911;-87
2021/04/06 11:59:21;;;;;;;;;;;3.50;92.20;;;;;;5054853;28;19940;-87
2021/04/06 12:01:47;;;;;;;;;;;3.10;93.30;;;;;;5054460;28;19963;-87
2021/04/06 12:04:13;;;;;;;;;;;2.60;94.90;;;;;;5056368;28;20420;-87
2021/04/06 12:06:39;;;;;;;;;;;2.40;96.70;;;;;;5058946;28;19971;-87
2021/04/06 12:09:05;;;;;;;;;;;2.30;97.00;;;;;;5074577;28;20262;-87
2021/04/06 12:11:32;;;;;;;;;;;2.10;97.80;;;;;;5057980;28;19911;-86
2021/04/06 12:13:57;;;;;;;;;;;2.10;97.70;;;;;;5058111;28;19965;-87
2021/04/06 12:16:23;;;;;;;;;;;2.20;97.70;;;;;;5058461;28;19912;-87
2021/04/06 12:18:48;;;;;;;;;;;2.40;98.30;;;;;;5057558;28;19911;-87
2021/04/06 12:21:14;;;;;;;;;;;2.50;98.30;;;;;;5058064;28;20316;-87
2021/04/06 12:23:40;;;;;;;;;;;2.70;97.70;;;;;;5058332;28;19958;-87
2021/04/06 12:26:08;;;;;;;;;;;2.70;96.90;;;;;;5076265;28;19912;-87
2021/04/06 12:28:34;;;;;;;;;;;2.80;96.30;;;;;;5076100;28;19927;-87
2021/04/06 12:31:00;;;;;;;;;;;2.70;96.80;;;;;;5059239;28;20369;-88
2021/04/06 12:33:26;;;;;;;;;;;2.70;97.60;;;;;;5060466;28;20373;-87
2021/04/06 12:35:51;;;;;;;;;;;2.80;97.50;;;;;;5060172;28;20403;-87
2021/04/06 12:38:17;;;;;;;;;;;2.80;96.80;;;;;;5076449;28;19940;-87
2021/04/06 12:40:42;;;;;;;;;;;2.80;97.10;;;;;;5059546;28;19948;-87
2021/04/06 12:43:08;;;;;;;;;;;2.90;97.40;;;;;;5059852;28;19912;-87
2021/04/06 12:45:34;;;;;;;;;;;3.10;96.70;;;;;;5077590;28;20369;-87
2021/04/06 12:47:59;;;;;;;;;;;3.00;96.40;;;;;;5077410;28;19904;-87
2021/04/06 12:50:26;;;;;;;;;;;3.10;95.50;;;;;;5059584;28;19904;-87
2021/04/06 12:52:52;;;;;;;;;;;3.10;95.50;;;;;;5059562;28;19910;-87
2021/04/06 12:55:17;;;;;;;;;;;3.10;96.20;;;;;;5078050;28;19991;-87
2021/04/06 12:57:43;;;;;;;;;;;3.20;96.70;;;;;;5059237;28;20339;-88
2021/04/06 13:00:09;;;;;;;;;;;3.30;96.40;;;;;;5058757;28;20589;-87
2021/04/06 13:02:47;;;;;;;;;;;3.30;96.40;;;;;;5059205;28;19904;-87
2021/04/06 13:05:13;;;;;;;;;;;3.40;95.70;;;;;;5059657;28;19908;-88
2021/04/06 13:07:39;;;;;;;;;;;3.50;95.80;;;;;;5059216;28;20382;-87
2021/04/06 13:10:05;;;;;;;;;;;3.50;96.20;;;;;;5058972;28;19954;-87
2021/04/06 13:12:30;;;;;;;;;;;3.60;96.00;;;;;;5059630;28;19910;-88
2021/04/06 13:14:56;;;;;;;;;;;3.60;94.60;;;;;;5060296;28;19904;-88
2021/04/06 13:17:21;;;;;;;;;;;3.50;93.70;;;;;;5060498;28;19915;-87
2021/04/06 13:19:47;;;;;;;;;;;3.70;94.60;;;;;;5060153;28;19908;-88
2021/04/06 13:22:13;;;;;;;;;;;3.80;94.50;;;;;;5078502;28;19954;-87
2021/04/06 13:24:38;;;;;;;;;;;3.80;93.70;;;;;;5060811;28;19914;-87
2021/04/06 13:27:04;;;;;;;;;;;3.90;93.80;;;;;;5060361;28;19932;-85
2021/04/06 13:29:30;;;;;;;;;;;4.00;93.20;;;;;;5060038;28;19904;-86
2021/04/06 13:31:55;;;;;;;;;;;4.00;93.50;;;;;;5077002;28;20004;-87
2021/04/06 13:34:21;;;;;;;;;;;4.00;93.10;;;;;;5059148;28;19904;-87
2021/04/06 13:36:47;;;;;;;;;;;4.10;93.00;;;;;;5075831;28;20364;-85
2021/04/06 13:39:19;;;;;;;;;;;4.10;93.20;;;;;;5058025;28;19911;-85
2021/04/06 13:41:44;;;;;;;;;;;4.10;93.30;;;;;;5057968;28;19912;-85
2021/04/06 13:44:10;;;;;;;;;;;4.10;93.00;;;;;;5058204;28;19909;-86
2021/04/06 13:46:36;;;;;;;;;;;3.70;93.20;;;;;;5058017;28;19908;-85
2021/04/06 13:49:02;;;;;;;;;;;2.60;95.00;;;;;;5059260;28;20365;-85
2021/04/06 13:51:27;;;;;;;;;;;2.10;96.50;;;;;;5058607;28;19943;-85
2021/04/06 13:53:53;;;;;;;;;;;1.90;97.60;;;;;;5058581;28;19905;-85
2021/04/06 13:56:19;;;;;;;;;;;1.90;97.20;;;;;;5058498;28;19905;-87
2021/04/06 13:58:44;;;;;;;;;;;1.90;98.10;;;;;;5059252;28;19918;-84
2021/04/06 14:01:10;;;;;;;;;;;1.80;97.50;;;;;;5058788;28;19911;-86
2021/04/06 14:03:36;;;;;;;;;;;1.90;97.40;;;;;;5059185;28;19958;-86
2021/04/06 14:06:01;;;;;;;;;;;2.10;98.00;;;;;;5059007;28;19931;-85
2021/04/06 14:08:27;;;;;;;;;;;2.00;97.40;;;;;;5059604;28;20387;-85
2021/04/06 14:10:53;;;;;;;;;;;2.20;97.00;;;;;;5059166;28;19911;-85
2021/04/06 14:13:18;;;;;;;;;;;2.20;97.60;;;;;;5056589;28;19904;-85
2021/04/06 14:15:45;;;;;;;;;;;2.20;97.20;;;;;;5057643;28;20278;-85
2021/04/06 14:18:11;;;;;;;;;;;2.50;98.30;;;;;;5058128;28;20046;-85
2021/04/06 14:20:38;;;;;;;;;;;2.60;97.70;;;;;;5058171;28;20381;-86
2021/04/06 14:23:05;;;;;;;;;;;2.70;97.60;;;;;;5057905;28;19904;-85
2021/04/06 14:25:31;;;;;;;;;;;2.80;96.30;;;;;;5057488;28;19908;-85
2021/04/06 14:27:57;;;;;;;;;;;2.90;96.80;;;;;;5056602;28;19927;-85
2021/04/06 14:30:30;;;;;;;;;;;3.20;97.00;;;;;;5057666;28;19908;-85
2021/04/06 14:32:56;;;;;;;;;;;3.20;96.00;;;;;;5057548;28;19994;-85
2021/04/06 14:35:22;;;;;;;;;;;3.30;95.60;;;;;;5057871;28;19911;-86
2021/04/06 14:37:48;;;;;;;;;;;3.40;96.30;;;;;;5057951;28;19938;-86
2021/04/06 14:40:15;;;;;;;;;;;3.70;95.80;;;;;;5057661;28;20356;-86
2021/04/06 14:42:41;;;;;;;;;;;3.80;95.90;;;;;;5057980;28;19932;-87
2021/04/06 14:45:08;;;;;;;;;;;4.00;95.80;;;;;;5058154;28;20356;-86
2021/04/06 14:47:33;;;;;;;;;;;4.00;95.30;;;;;;5057109;28;19913;-85
2021/04/06 14:49:59;;;;;;;;;;;4.00;93.00;;;;;;5056020;28;19908;-86
2021/04/06 14:52:24;;;;;;;;;;;3.60;93.40;;;;;;5057376;28;19927;-85
2021/04/06 14:54:50;;;;;;;;;;;2.70;96.40;;;;;;5057256;28;19905;-86
2021/04/06 14:57:15;;;;;;;;;;;2.40;97.80;;;;;;5057602;28;20357;-84
2021/04/06 14:59:41;;;;;;;;;;;2.20;98.20;;;;;;5057660;28;20379;-84